KMYR/MYR METAR and TAF weather

Enter ICAO airport designator
Station Type Date Time Source
KMYR METAR 2024/04/17 16:56 UTC NOAA

KMYR 171656Z 17008KT 9SM CLR 23/20 A3014 RMK AO2 SLP205 T02330200


Station Type Date Time Source
KMYR Decoded METAR 2024/04/17 16:56 UTC NOAA

Myrtle Beach Air Force Base, SC, United States (KMYR) 33-41N 078-56W 8M
Apr 17, 2024 - 12:56 PM EDT / 2024.04.17 1656 UTC
Wind: from the S (170 degrees) at 9 MPH (8 KT):0
Visibility: 9 mile(s):0
Sky conditions: clear
Temperature: 73.9 F (23.3 C)
Dew Point: 68.0 F (20.0 C)
Relative Humidity: 81%
Pressure (altimeter): 30.14 in. Hg (1020 hPa)
ob: KMYR 171656Z 17008KT 9SM CLR 23/20 A3014 RMK AO2 SLP205 T02330200
cycle: 17

Station Type Date Time Source
KMYR TAF 2024/04/17 18:22 UTC NOAA